Avon Heights, PA

10:11 AM EDT on July 30, 2015 (GMT -0400)
Lebanon | | Change Station
CLOSE
Current Station
Personal Weather Station
Location: Lebanon, PA
Elevation: 505 ft
Nearby Weather Stations

Elev 505 ft 40.33 °N, 76.44 °W | Updated 0 second ago

Overcast
Overcast
80.1 °F
Feels Like 85 °F
N
0.0
Wind Variable Wind from South
Gusts 6.0 mph

Today
High -- | Low -- °F
--% Chance of Precip.
Yesterday
High -- | Low -- °F
Precip. -- in
6:01 AM 8:22 PM
Waxing Gibbous, 99% visible
Pressure 29.90 in
Visibility 10.0 miles
Clouds Overcast 1200 ft
Heat Index 85 °F
Dew Point 73 °F
Humidity 82%
Rainfall 0.00 in
Snow Depth Not available.
UV 2 out of 12
Pollen 5.70 out of 12
Air Quality Not available.
Flu Activity Not available.
METAR KMUI 301358Z AUTO 26004KT 10SM OVC012 26/23 A2990 RMK AO2 SLP124 T02590231 $

More Conditions Fewer Conditions

Pressure 29.90 in
Visibility 10.0 miles
Clouds Overcast 1200 ft
Heat Index 85 °F
Dew Point 73 °F
Humidity 82%
Rainfall 0.00 in
Snow Depth Not available.
UV 2 out of 12
Pollen 5.70 out of 12
Air Quality Not available.
Flu Activity Not available.
METAR KMUI 301358Z AUTO 26004KT 10SM OVC012 26/23 A2990 RMK AO2 SLP124 T02590231 $

More Conditions Fewer Conditions

Nowcast | as of 8:38 am EDT on July 30, 2015

A band of showers near a Williamsport...Lewistown...Bedford line at 830 am...will continue to move eastward across the Susquehanna valley this morning. A rumble of thunder will be possible. The showers are moving east at 25 mph...and the leading edge of the activity will be near a Tamaqua...Gettysburg line by 1130 am. Some showers will contain heavy downpours.

×

10-Day Weather Forecast

×

Almanac

Astronomy

Jul. 30, 2015 Rise Set
Actual Time
Civil Twilight
Nautical Twilight
Astronomical Twilight
Moon
Length of Visible Light
Length of Day
Tomorrow will be .
, % of the Moon is Illuminated

Today's Extremes

State Highs State Lows

Community

WunderPhotos

Upload Photos

1,842,387 photos uploaded!

WunderBlogs® & News

Nearby

Air Quality

  Air Quality AQ Index Pollutant
Not available.

Snow Depth

Station Depth Elevation

Earthquake Activity

City Distance Mag. Time & Date
Minimum magnitude displayed is 2.5.

Coastal Water Temperatures

Place Temperature

Stations

Nearby Weather Stations

Station Location Temp. Windchill Dew Point Humidity Wind Precip. Elev Updated Type